Time;durP1;ratioP1;P1;durP2;ratioP2;P2;SDS_P1;SDS_P2;PMS_P1;PMS_P2;Temp;Humidity;BMP_temperature;BMP_pressure;BME280_temperature;BME280_humidity;BME280_pressure;Samples;Min_cycle;Max_cycle;Signal;HPM_P1;HPM_P2
2023/02/23 00:00:27;;;;;;;78.15;44.85;;;;;;;;;;5055791;28;20691;-67
2023/02/23 00:02:54;;;;;;;79.43;43.60;;;;;;;;;;5055587;28;20274;-67
2023/02/23 00:05:21;;;;;;;80.07;44.45;;;;;;;;;;5067585;28;20709;-67
2023/02/23 00:07:46;;;;;;;84.43;46.17;;;;;;;;;;5066417;28;20189;-67
2023/02/23 00:10:13;;;;;;;80.97;45.83;;;;;;;;;;5053089;28;20188;-68
2023/02/23 00:12:43;;;;;;;77.05;43.80;;;;;;;;;;5066317;28;20722;-67
2023/02/23 00:15:09;;;;;;;78.78;45.42;;;;;;;;;;5062086;28;20209;-67
2023/02/23 00:17:39;;;;;;;85.53;46.88;;;;;;;;;;5050792;28;20287;-67
2023/02/23 00:20:10;;;;;;;81.72;47.22;;;;;;;;;;5057638;28;20182;-68
2023/02/23 00:22:38;;;;;;;86.25;46.53;;;;;;;;;;5055455;28;20528;-67
2023/02/23 00:25:07;;;;;;;82.57;45.63;;;;;;;;;;5066482;28;20261;-68
2023/02/23 00:27:34;;;;;;;84.90;46.22;;;;;;;;;;5050189;28;20193;-67
2023/02/23 00:30:00;;;;;;;84.82;47.55;;;;;;;;;;5050940;28;20589;-68
2023/02/23 00:32:25;;;;;;;80.18;44.40;;;;;;;;;;5066187;28;20225;-68
2023/02/23 00:34:51;;;;;;;88.88;47.97;;;;;;;;;;5055085;28;20186;-67
2023/02/23 00:37:18;;;;;;;85.55;47.17;;;;;;;;;;5053728;28;20296;-68
2023/02/23 00:39:43;;;;;;;78.95;45.92;;;;;;;;;;5064629;28;20665;-67
2023/02/23 00:42:09;;;;;;;85.55;46.28;;;;;;;;;;5061926;28;20186;-67
2023/02/23 00:44:35;;;;;;;90.45;48.33;;;;;;;;;;5062685;28;20640;-67
2023/02/23 00:47:01;;;;;;;87.68;48.13;;;;;;;;;;5056755;28;20694;-67
2023/02/23 00:49:27;;;;;;;86.63;47.42;;;;;;;;;;5056852;28;20186;-67
2023/02/23 00:51:52;;;;;;;86.13;47.75;;;;;;;;;;5054288;28;20562;-67
2023/02/23 00:54:19;;;;;;;83.85;47.80;;;;;;;;;;5061250;28;20213;-68
2023/02/23 00:56:45;;;;;;;87.10;47.67;;;;;;;;;;5068669;28;20200;-67
2023/02/23 00:59:12;;;;;;;89.47;48.53;;;;;;;;;;5064755;28;20687;-67
2023/02/23 01:01:38;;;;;;;85.90;47.65;;;;;;;;;;5068085;28;20303;-67
2023/02/23 01:04:06;;;;;;;89.03;47.88;;;;;;;;;;5059777;28;20264;-67
2023/02/23 01:06:31;;;;;;;92.55;48.92;;;;;;;;;;5057109;28;20560;-68
2023/02/23 01:08:56;;;;;;;82.85;47.42;;;;;;;;;;5061087;28;20189;-68
2023/02/23 01:11:27;;;;;;;81.40;46.22;;;;;;;;;;5059923;28;20196;-67
2023/02/23 01:13:55;;;;;;;86.88;49.28;;;;;;;;;;5051965;28;20217;-67
2023/02/23 01:16:26;;;;;;;89.68;47.97;;;;;;;;;;5053851;28;20260;-67
2023/02/23 01:18:53;;;;;;;89.28;48.80;;;;;;;;;;5067039;28;20306;-68
2023/02/23 01:21:24;;;;;;;93.35;49.50;;;;;;;;;;5064082;28;20239;-68
2023/02/23 01:23:51;;;;;;;86.97;48.17;;;;;;;;;;5059194;28;20238;-67
2023/02/23 01:26:26;;;;;;;87.28;47.83;;;;;;;;;;5067183;28;20524;-67
2023/02/23 01:29:00;;;;;;;89.28;48.47;;;;;;;;;;5054665;28;20224;-67
2023/02/23 01:31:27;;;;;;;93.93;48.67;;;;;;;;;;5059726;28;20204;-68
2023/02/23 01:33:53;;;;;;;90.35;47.80;;;;;;;;;;5055417;28;20202;-67
2023/02/23 01:36:18;;;;;;;82.03;47.13;;;;;;;;;;5047418;28;20663;-67
2023/02/23 01:38:44;;;;;;;95.28;48.65;;;;;;;;;;5056600;28;20589;-67
2023/02/23 01:41:09;;;;;;;89.43;48.22;;;;;;;;;;5050678;28;20356;-67
2023/02/23 01:43:35;;;;;;;95.80;48.05;;;;;;;;;;5060346;28;20636;-67
2023/02/23 01:46:01;;;;;;;88.28;45.65;;;;;;;;;;5058846;28;20244;-69
2023/02/23 01:48:36;;;;;;;90.82;47.92;;;;;;;;;;5054525;28;20578;-68
2023/02/23 01:51:11;;;;;;;92.97;48.42;;;;;;;;;;5052364;28;20186;-67
2023/02/23 01:53:42;;;;;;;93.57;49.67;;;;;;;;;;5065454;28;20481;-67
2023/02/23 01:56:17;;;;;;;88.95;46.92;;;;;;;;;;5049218;28;20235;-67
2023/02/23 01:58:46;;;;;;;88.50;46.08;;;;;;;;;;5061011;28;20184;-67
2023/02/23 02:01:12;;;;;;;104.07;49.33;;;;;;;;;;5064138;28;20261;-67
2023/02/23 02:03:42;;;;;;;88.22;45.72;;;;;;;;;;5055336;28;20197;-67
2023/02/23 02:06:12;;;;;;;86.07;46.67;;;;;;;;;;5058444;28;20259;-67
2023/02/23 02:08:45;;;;;;;97.00;46.83;;;;;;;;;;5061859;28;20207;-67
2023/02/23 02:11:35;;;;;;;93.13;47.47;;;;;;;;;;5053110;28;20310;-67
2023/02/23 02:14:12;;;;;;;88.15;46.53;;;;;;;;;;5054105;28;20202;-67
2023/02/23 02:17:22;;;;;;;90.45;48.15;;;;;;;;;;5054459;28;20189;-67
2023/02/23 02:20:13;;;;;;;91.13;46.53;;;;;;;;;;5053139;28;20716;-67
2023/02/23 02:23:13;;;;;;;95.15;46.70;;;;;;;;;;5058515;28;20180;-67
2023/02/23 02:25:55;;;;;;;93.85;47.53;;;;;;;;;;5061687;28;20212;-67
2023/02/23 02:28:42;;;;;;;91.53;47.28;;;;;;;;;;5050770;28;20645;-67
2023/02/23 02:31:25;;;;;;;93.05;46.22;;;;;;;;;;5058458;28;20559;-67
2023/02/23 02:34:24;;;;;;;93.70;47.45;;;;;;;;;;5054130;28;20225;-67
2023/02/23 02:37:08;;;;;;;89.28;46.17;;;;;;;;;;5055610;28;20643;-68
2023/02/23 02:40:15;;;;;;;96.00;44.40;;;;;;;;;;5052113;28;20189;-67
2023/02/23 02:42:51;;;;;;;93.07;46.05;;;;;;;;;;5052041;28;20283;-67
2023/02/23 02:45:51;;;;;;;87.45;45.45;;;;;;;;;;5057033;28;20193;-67
2023/02/23 02:48:29;;;;;;;91.60;43.85;;;;;;;;;;5059361;28;20284;-67
2023/02/23 02:51:18;;;;;;;93.25;44.65;;;;;;;;;;5058933;28;20197;-67
2023/02/23 02:54:24;;;;;;;92.65;44.85;;;;;;;;;;5054775;28;20223;-67
2023/02/23 02:56:56;;;;;;;94.13;44.55;;;;;;;;;;5052970;28;20271;-67
2023/02/23 04:17:42;;;;;;;96.63;42.90;;;;;;;;;;5053460;28;20189;-66
2023/02/23 04:20:11;;;;;;;97.53;43.22;;;;;;;;;;5049659;28;20194;-67
2023/02/23 04:22:36;;;;;;;103.38;44.22;;;;;;;;;;5048286;28;20197;-67
2023/02/23 04:25:04;;;;;;;96.70;42.28;;;;;;;;;;5049559;28;20255;-66
2023/02/23 04:27:30;;;;;;;100.18;42.40;;;;;;;;;;5050497;28;20246;-67
2023/02/23 04:29:55;;;;;;;103.35;43.97;;;;;;;;;;5051442;28;20229;-67
2023/02/23 04:32:21;;;;;;;98.13;42.63;;;;;;;;;;5062224;28;20205;-66
2023/02/23 04:34:46;;;;;;;103.55;42.20;;;;;;;;;;5048880;28;20224;-67
2023/02/23 04:37:12;;;;;;;99.20;41.03;;;;;;;;;;5050194;28;20212;-67
2023/02/23 04:39:38;;;;;;;93.07;39.70;;;;;;;;;;5050905;28;20692;-69
2023/02/23 04:42:04;;;;;;;90.57;41.22;;;;;;;;;;5055037;28;20343;-67
2023/02/23 04:44:29;;;;;;;87.57;38.33;;;;;;;;;;5061636;28;20242;-67
2023/02/23 04:46:56;;;;;;;84.68;38.47;;;;;;;;;;5048607;28;20204;-67
2023/02/23 04:49:22;;;;;;;82.90;38.90;;;;;;;;;;5068233;28;20180;-67
2023/02/23 04:51:47;;;;;;;86.25;38.40;;;;;;;;;;5056768;28;20201;-67
2023/02/23 04:54:12;;;;;;;83.53;37.28;;;;;;;;;;5059251;28;20225;-67
2023/02/23 04:56:38;;;;;;;84.00;35.90;;;;;;;;;;5063574;28;20520;-67
2023/02/23 04:59:03;;;;;;;85.97;36.67;;;;;;;;;;5054116;28;20286;-67
2023/02/23 05:01:31;;;;;;;81.47;36.63;;;;;;;;;;5067316;28;20220;-67
2023/02/23 05:03:57;;;;;;;79.55;37.92;;;;;;;;;;5051556;28;20178;-67
2023/02/23 05:06:22;;;;;;;81.43;35.83;;;;;;;;;;5055935;28;20336;-67
2023/02/23 05:08:48;;;;;;;77.68;35.30;;;;;;;;;;5062627;28;20200;-67
2023/02/23 05:11:13;;;;;;;75.50;34.80;;;;;;;;;;5053329;28;20181;-67
2023/02/23 05:13:39;;;;;;;79.45;35.97;;;;;;;;;;5057163;28;20248;-67
2023/02/23 05:16:05;;;;;;;77.40;35.47;;;;;;;;;;5056837;28;20621;-67
2023/02/23 05:18:30;;;;;;;74.68;33.80;;;;;;;;;;5057848;28;20193;-67
2023/02/23 05:21:07;;;;;;;77.75;34.60;;;;;;;;;;5055521;28;20608;-67
2023/02/23 05:23:36;;;;;;;79.07;34.90;;;;;;;;;;5058915;28;20185;-66
2023/02/23 05:26:05;;;;;;;72.13;34.00;;;;;;;;;;5049145;28;20189;-67
2023/02/23 05:28:34;;;;;;;79.00;35.88;;;;;;;;;;5046487;28;20225;-67
2023/02/23 05:30:59;;;;;;;76.63;33.50;;;;;;;;;;5049617;28;20180;-67
2023/02/23 05:33:25;;;;;;;80.38;36.65;;;;;;;;;;5053942;28;20206;-67
2023/02/23 05:35:51;;;;;;;73.53;33.17;;;;;;;;;;5060647;28;20606;-67
2023/02/23 05:38:16;;;;;;;77.75;34.63;;;;;;;;;;5047768;28;20295;-67
2023/02/23 05:40:41;;;;;;;82.18;36.17;;;;;;;;;;5054372;28;20214;-67
2023/02/23 05:43:07;;;;;;;73.25;33.63;;;;;;;;;;5054522;28;20665;-67
2023/02/23 05:45:32;;;;;;;74.78;32.72;;;;;;;;;;5050205;28;20188;-67
2023/02/23 05:47:58;;;;;;;77.13;34.38;;;;;;;;;;5051728;28;20188;-67
2023/02/23 05:50:24;;;;;;;77.80;35.00;;;;;;;;;;5061377;28;20641;-67
2023/02/23 05:52:50;;;;;;;76.50;35.03;;;;;;;;;;5052370;28;20201;-67
2023/02/23 05:55:15;;;;;;;81.38;35.67;;;;;;;;;;5060411;28;20194;-67
2023/02/23 05:57:41;;;;;;;80.65;35.60;;;;;;;;;;5060967;28;20540;-66
2023/02/23 06:00:07;;;;;;;78.72;34.75;;;;;;;;;;5061046;28;20319;-66
2023/02/23 06:02:33;;;;;;;81.70;36.17;;;;;;;;;;5054009;28;20192;-67
2023/02/23 06:04:59;;;;;;;78.57;35.63;;;;;;;;;;5060568;28;20641;-67
2023/02/23 06:07:25;;;;;;;81.88;36.13;;;;;;;;;;5053420;28;20201;-67
2023/02/23 06:09:50;;;;;;;88.57;37.67;;;;;;;;;;5053720;28;20197;-67
2023/02/23 06:12:15;;;;;;;82.10;37.90;;;;;;;;;;5052660;28;20633;-67
2023/02/23 06:14:41;;;;;;;86.82;36.63;;;;;;;;;;5052563;28;20265;-67
2023/02/23 06:17:06;;;;;;;89.45;37.45;;;;;;;;;;5052170;28;20552;-68
2023/02/23 06:19:32;;;;;;;88.80;38.08;;;;;;;;;;5056041;28;20663;-67
2023/02/23 06:21:58;;;;;;;82.95;37.00;;;;;;;;;;5055659;28;20193;-67
2023/02/23 06:24:23;;;;;;;81.45;36.97;;;;;;;;;;5054361;28;20213;-67
2023/02/23 06:26:49;;;;;;;89.68;38.60;;;;;;;;;;5059257;28;20249;-67
2023/02/23 06:29:15;;;;;;;88.32;38.85;;;;;;;;;;5053440;28;20285;-68
2023/02/23 06:31:41;;;;;;;89.28;40.20;;;;;;;;;;5064211;28;20188;-67
2023/02/23 06:34:07;;;;;;;83.13;37.72;;;;;;;;;;5054743;28;20223;-68
2023/02/23 06:36:32;;;;;;;84.30;38.05;;;;;;;;;;5049310;28;20203;-68
2023/02/23 06:38:58;;;;;;;85.15;37.47;;;;;;;;;;5056397;28;20672;-67
2023/02/23 06:41:24;;;;;;;82.68;38.10;;;;;;;;;;5063721;28;20268;-68
2023/02/23 06:43:50;;;;;;;92.13;39.22;;;;;;;;;;5049951;28;20231;-67
2023/02/23 06:46:16;;;;;;;91.97;38.85;;;;;;;;;;5052601;28;20681;-67
2023/02/23 06:48:42;;;;;;;90.25;39.75;;;;;;;;;;5063714;28;20271;-67
2023/02/23 06:51:07;;;;;;;87.60;38.83;;;;;;;;;;5056649;28;20201;-67
2023/02/23 06:53:33;;;;;;;91.88;40.40;;;;;;;;;;5058153;28;20247;-67
2023/02/23 06:55:59;;;;;;;82.22;38.10;;;;;;;;;;5063047;28;20197;-67
2023/02/23 06:58:24;;;;;;;85.93;37.72;;;;;;;;;;5059435;28;20272;-67
2023/02/23 07:00:50;;;;;;;87.03;37.03;;;;;;;;;;5053893;28;20274;-67
2023/02/23 07:03:15;;;;;;;83.50;37.13;;;;;;;;;;5048498;28;20214;-67
2023/02/23 07:05:41;;;;;;;83.72;36.92;;;;;;;;;;5052431;28;20271;-67
2023/02/23 07:08:06;;;;;;;86.85;38.40;;;;;;;;;;5054031;28;20192;-67
2023/02/23 07:10:32;;;;;;;92.57;38.72;;;;;;;;;;5045549;28;20375;-67
2023/02/23 07:12:58;;;;;;;89.90;38.75;;;;;;;;;;5048824;28;20228;-67
2023/02/23 07:15:24;;;;;;;91.68;37.88;;;;;;;;;;5056051;28;20204;-67
2023/02/23 07:17:51;;;;;;;98.22;38.40;;;;;;;;;;5056782;28;20196;-67
2023/02/23 07:20:17;;;;;;;99.07;40.17;;;;;;;;;;5051457;28;20200;-67
2023/02/23 07:22:43;;;;;;;95.82;39.70;;;;;;;;;;5052836;28;20685;-67
2023/02/23 07:25:08;;;;;;;94.45;39.63;;;;;;;;;;5050152;28;20185;-68
2023/02/23 07:27:34;;;;;;;94.35;41.33;;;;;;;;;;5057038;28;20205;-68
2023/02/23 07:30:01;;;;;;;95.82;40.40;;;;;;;;;;5063224;28;20331;-67
2023/02/23 07:32:27;;;;;;;91.22;37.90;;;;;;;;;;5065980;28;20174;-67
2023/02/23 07:34:52;;;;;;;102.10;41.03;;;;;;;;;;5053990;28;20745;-67
2023/02/23 07:37:18;;;;;;;91.32;39.25;;;;;;;;;;5051732;28;20276;-67
2023/02/23 07:39:43;;;;;;;93.47;38.95;;;;;;;;;;5058757;28;20731;-67
2023/02/23 07:42:08;;;;;;;83.93;36.80;;;;;;;;;;5062089;28;20232;-67
2023/02/23 07:44:34;;;;;;;88.53;37.85;;;;;;;;;;5056201;28;20192;-67
2023/02/23 07:46:59;;;;;;;90.57;38.08;;;;;;;;;;5053015;28;20186;-67
2023/02/23 07:49:25;;;;;;;85.03;35.90;;;;;;;;;;5053865;28;20254;-67
2023/02/23 07:51:50;;;;;;;83.45;35.85;;;;;;;;;;5054668;28;20177;-67
2023/02/23 07:54:15;;;;;;;83.38;36.25;;;;;;;;;;5052938;28;20615;-67
2023/02/23 07:56:41;;;;;;;80.10;34.50;;;;;;;;;;5059695;28;20191;-67
2023/02/23 07:59:06;;;;;;;81.00;36.05;;;;;;;;;;5054837;28;20556;-67
2023/02/23 08:01:32;;;;;;;82.38;35.83;;;;;;;;;;5055001;28;20210;-67
2023/02/23 08:03:57;;;;;;;82.20;36.33;;;;;;;;;;5055186;28;20185;-67
2023/02/23 08:06:22;;;;;;;79.10;35.13;;;;;;;;;;5055273;28;20196;-67
2023/02/23 08:08:48;;;;;;;76.53;34.60;;;;;;;;;;5056539;28;20201;-69
2023/02/23 08:11:14;;;;;;;77.20;34.88;;;;;;;;;;5051704;28;20328;-67
2023/02/23 08:13:39;;;;;;;75.95;35.65;;;;;;;;;;5047156;28;20217;-67
2023/02/23 08:16:05;;;;;;;78.65;34.78;;;;;;;;;;5065549;28;20195;-67
2023/02/23 08:18:31;;;;;;;76.68;33.65;;;;;;;;;;5059744;28;20279;-67
2023/02/23 08:21:01;;;;;;;77.72;34.63;;;;;;;;;;5058440;28;20193;-67
2023/02/23 08:23:32;;;;;;;81.25;35.45;;;;;;;;;;5049079;28;20205;-67
2023/02/23 08:25:58;;;;;;;75.10;33.42;;;;;;;;;;5059044;28;20197;-67
2023/02/23 08:28:24;;;;;;;74.45;33.97;;;;;;;;;;5048698;28;20320;-67
2023/02/23 08:30:49;;;;;;;77.88;34.55;;;;;;;;;;5053116;28;20314;-67
2023/02/23 08:33:15;;;;;;;76.35;33.22;;;;;;;;;;5055725;28;20221;-67
2023/02/23 08:35:41;;;;;;;77.05;34.10;;;;;;;;;;5054763;28;20663;-67
2023/02/23 08:38:06;;;;;;;75.53;34.38;;;;;;;;;;5053706;28;20177;-67
2023/02/23 08:40:32;;;;;;;71.45;34.45;;;;;;;;;;5055305;28;20445;-67
2023/02/23 08:42:57;;;;;;;73.88;33.10;;;;;;;;;;5057360;28;20378;-67
2023/02/23 08:45:22;;;;;;;75.07;34.03;;;;;;;;;;5051132;28;20193;-67
2023/02/23 08:47:48;;;;;;;75.07;34.67;;;;;;;;;;5050173;28;20623;-67
2023/02/23 08:50:13;;;;;;;74.72;34.10;;;;;;;;;;5054727;28;20200;-67
2023/02/23 08:52:39;;;;;;;68.88;31.27;;;;;;;;;;5054571;28;20191;-67
2023/02/23 08:55:05;;;;;;;73.55;33.38;;;;;;;;;;5051890;28;20276;-67
2023/02/23 08:57:34;;;;;;;73.53;32.58;;;;;;;;;;5052283;28;20196;-67
2023/02/23 09:00:00;;;;;;;72.55;33.13;;;;;;;;;;5048349;28;20213;-67
2023/02/23 09:02:27;;;;;;;76.03;32.10;;;;;;;;;;5048368;28;20178;-67
2023/02/23 09:04:52;;;;;;;75.68;33.13;;;;;;;;;;5047818;28;20256;-67
2023/02/23 09:07:21;;;;;;;74.88;33.00;;;;;;;;;;5049891;28;20478;-67
2023/02/23 09:09:52;;;;;;;68.05;32.33;;;;;;;;;;5056613;28;20192;-66
2023/02/23 09:12:18;;;;;;;74.13;33.35;;;;;;;;;;5049717;28;20341;-67
2023/02/23 09:14:43;;;;;;;69.40;31.88;;;;;;;;;;5055022;28;20504;-66
2023/02/23 09:17:09;;;;;;;74.57;32.63;;;;;;;;;;5050699;28;20181;-67
2023/02/23 09:19:34;;;;;;;73.05;32.75;;;;;;;;;;5048745;28;20190;-66
2023/02/23 09:21:59;;;;;;;76.88;33.13;;;;;;;;;;5051383;28;20193;-67
2023/02/23 09:24:25;;;;;;;69.45;31.60;;;;;;;;;;5050287;28;20251;-67
2023/02/23 09:26:52;;;;;;;77.00;33.35;;;;;;;;;;5055103;28;20230;-67
2023/02/23 09:29:17;;;;;;;68.57;33.03;;;;;;;;;;5047795;28;20231;-67
2023/02/23 09:31:43;;;;;;;72.68;32.10;;;;;;;;;;5058117;28;20283;-67
2023/02/23 09:34:09;;;;;;;69.10;32.67;;;;;;;;;;5050308;28;20281;-67
2023/02/23 09:36:34;;;;;;;70.97;31.15;;;;;;;;;;5047696;28;20871;-67
2023/02/23 09:39:00;;;;;;;72.55;32.10;;;;;;;;;;5061368;28;21392;-67
2023/02/23 09:41:29;;;;;;;70.97;32.25;;;;;;;;;;5050058;28;20643;-67
2023/02/23 09:44:15;;;;;;;67.82;30.73;;;;;;;;;;5060534;28;20224;-67
2023/02/23 09:46:50;;;;;;;76.35;33.33;;;;;;;;;;5056685;28;20275;-67
2023/02/23 09:49:22;;;;;;;74.25;32.95;;;;;;;;;;5050801;28;20366;-67
2023/02/23 09:51:54;;;;;;;75.78;34.05;;;;;;;;;;5059648;28;20188;-67
2023/02/23 09:54:21;;;;;;;72.75;32.50;;;;;;;;;;5053570;28;20231;-67
2023/02/23 09:56:48;;;;;;;68.50;31.40;;;;;;;;;;5057670;28;20191;-67
2023/02/23 09:59:20;;;;;;;63.70;29.40;;;;;;;;;;5056129;28;20177;-67
2023/02/23 10:02:04;;;;;;;70.20;31.88;;;;;;;;;;5047011;28;20568;-67
2023/02/23 10:04:42;;;;;;;70.22;30.65;;;;;;;;;;5055317;28;20584;-67
2023/02/23 10:07:23;;;;;;;67.10;30.42;;;;;;;;;;5054574;28;20629;-67
2023/02/23 10:10:00;;;;;;;68.38;31.30;;;;;;;;;;5052608;28;20279;-67
2023/02/23 10:12:42;;;;;;;66.30;29.88;;;;;;;;;;5047362;28;20224;-67
2023/02/23 10:15:32;;;;;;;66.97;31.67;;;;;;;;;;5055274;28;20559;-67
2023/02/23 10:18:19;;;;;;;75.03;31.83;;;;;;;;;;5049669;28;20197;-67
2023/02/23 10:21:12;;;;;;;66.28;31.90;;;;;;;;;;5050301;28;20192;-68
2023/02/23 10:23:45;;;;;;;71.15;32.17;;;;;;;;;;5052888;28;20185;-67
2023/02/23 10:26:17;;;;;;;63.80;31.20;;;;;;;;;;5050765;28;20188;-67
2023/02/23 10:28:42;;;;;;;69.35;31.27;;;;;;;;;;5049423;28;20248;-67
2023/02/23 10:31:40;;;;;;;72.40;31.33;;;;;;;;;;5055461;28;20224;-69
2023/02/23 10:34:14;;;;;;;70.40;30.70;;;;;;;;;;5052908;28;20594;-67
2023/02/23 10:37:01;;;;;;;71.72;31.73;;;;;;;;;;5053846;28;20597;-68
2023/02/23 10:39:29;;;;;;;68.13;28.85;;;;;;;;;;5059717;28;20611;-68
2023/02/23 10:42:01;;;;;;;58.90;27.90;;;;;;;;;;5069119;28;20241;-68
2023/02/23 10:44:27;;;;;;;60.67;27.17;;;;;;;;;;5062309;28;20260;-67
2023/02/23 10:47:01;;;;;;;62.67;27.30;;;;;;;;;;5049927;28;20190;-67
2023/02/23 10:49:40;;;;;;;63.65;28.08;;;;;;;;;;5062916;28;20192;-68
2023/02/23 10:52:12;;;;;;;63.35;27.60;;;;;;;;;;5065480;28;20699;-68
2023/02/23 10:54:48;;;;;;;64.20;26.50;;;;;;;;;;5051559;28;20223;-68
2023/02/23 10:57:26;;;;;;;65.53;27.15;;;;;;;;;;5053162;28;20192;-67
2023/02/23 11:00:20;;;;;;;67.97;27.65;;;;;;;;;;5064476;28;20858;-68
2023/02/23 11:02:46;;;;;;;68.32;28.58;;;;;;;;;;5051291;28;20247;-67
2023/02/23 11:05:35;;;;;;;65.00;27.48;;;;;;;;;;5069009;28;20208;-68
2023/02/23 11:08:20;;;;;;;66.88;27.02;;;;;;;;;;5074496;28;20208;-68
2023/02/23 11:11:14;;;;;;;73.45;28.38;;;;;;;;;;5050380;28;20304;-68
2023/02/23 11:13:47;;;;;;;61.47;26.67;;;;;;;;;;5053421;28;20308;-68
2023/02/23 11:16:15;;;;;;;64.32;28.05;;;;;;;;;;5051163;28;20500;-68
2023/02/23 11:18:54;;;;;;;61.40;25.83;;;;;;;;;;5056928;28;20192;-68
2023/02/23 11:21:23;;;;;;;65.85;26.77;;;;;;;;;;5057940;28;20204;-68
2023/02/23 11:23:51;;;;;;;64.13;27.75;;;;;;;;;;5055236;28;20234;-68
2023/02/23 11:26:27;;;;;;;68.95;27.60;;;;;;;;;;5059055;28;20327;-68
2023/02/23 11:28:56;;;;;;;69.80;26.15;;;;;;;;;;5068519;28;20236;-68
2023/02/23 11:31:30;;;;;;;64.70;27.38;;;;;;;;;;5067027;28;20245;-68
2023/02/23 11:33:57;;;;;;;66.07;26.25;;;;;;;;;;5065248;28;20514;-68
2023/02/23 11:36:33;;;;;;;62.17;26.10;;;;;;;;;;5059803;28;20193;-68
2023/02/23 11:39:18;;;;;;;61.83;26.60;;;;;;;;;;5065309;28;20185;-67
2023/02/23 11:41:44;;;;;;;57.42;24.92;;;;;;;;;;5069623;28;20205;-68
2023/02/23 11:44:21;;;;;;;60.80;25.67;;;;;;;;;;5063902;28;20243;-67
2023/02/23 11:46:46;;;;;;;62.33;25.58;;;;;;;;;;5049784;28;20193;-67
2023/02/23 11:49:21;;;;;;;60.90;25.25;;;;;;;;;;5050149;28;20219;-67
2023/02/23 11:51:49;;;;;;;58.85;26.15;;;;;;;;;;5060423;28;20192;-68
2023/02/23 11:54:25;;;;;;;60.22;26.52;;;;;;;;;;5064936;28;20205;-68
2023/02/23 11:56:53;;;;;;;59.20;26.60;;;;;;;;;;5061613;28;20300;-68
2023/02/23 11:59:29;;;;;;;63.78;26.80;;;;;;;;;;5053893;28;20215;-68
2023/02/23 12:02:04;;;;;;;55.55;25.45;;;;;;;;;;5060615;28;20222;-67
2023/02/23 12:04:38;;;;;;;57.15;25.25;;;;;;;;;;5063339;28;20177;-68
2023/02/23 12:07:22;;;;;;;58.45;26.17;;;;;;;;;;5073898;28;20282;-68
2023/02/23 12:09:57;;;;;;;54.03;24.73;;;;;;;;;;5055741;28;20204;-68
2023/02/23 12:12:27;;;;;;;58.05;25.30;;;;;;;;;;5054358;28;20193;-68
2023/02/23 12:15:01;;;;;;;61.35;26.48;;;;;;;;;;5052022;28;20684;-67
2023/02/23 12:17:32;;;;;;;60.42;26.63;;;;;;;;;;5058535;28;20181;-67
2023/02/23 12:20:09;;;;;;;54.70;25.20;;;;;;;;;;5049597;28;20671;-67
2023/02/23 12:22:39;;;;;;;53.47;24.10;;;;;;;;;;5050983;28;20197;-67
2023/02/23 12:25:22;;;;;;;58.53;25.40;;;;;;;;;;5058185;28;20182;-68
2023/02/23 12:28:04;;;;;;;59.08;26.83;;;;;;;;;;5052510;28;20205;-67
2023/02/23 12:30:45;;;;;;;54.40;24.23;;;;;;;;;;5050139;28;20213;-67
2023/02/23 12:33:17;;;;;;;60.03;25.80;;;;;;;;;;5049786;28;20262;-67
2023/02/23 12:35:58;;;;;;;54.22;25.27;;;;;;;;;;5054558;28;20193;-67
2023/02/23 12:38:43;;;;;;;54.83;24.42;;;;;;;;;;5053347;28;20182;-67
2023/02/23 12:41:13;;;;;;;52.03;24.17;;;;;;;;;;5048275;28;20225;-67
2023/02/23 12:43:50;;;;;;;49.33;22.98;;;;;;;;;;5055223;28;20322;-67
2023/02/23 12:46:29;;;;;;;54.67;24.00;;;;;;;;;;5050961;28;20204;-67
2023/02/23 12:49:12;;;;;;;60.03;25.13;;;;;;;;;;5049952;28;20359;-68
2023/02/23 12:51:43;;;;;;;57.55;25.30;;;;;;;;;;5051071;28;20233;-67
2023/02/23 12:54:11;;;;;;;56.10;25.20;;;;;;;;;;5055924;28;20212;-67
2023/02/23 12:57:02;;;;;;;60.55;25.67;;;;;;;;;;5059842;28;20268;-67
2023/02/23 12:59:49;;;;;;;57.70;23.58;;;;;;;;;;5061712;28;20488;-67
2023/02/23 13:02:42;;;;;;;56.53;24.95;;;;;;;;;;5062200;28;20197;-67
2023/02/23 13:05:23;;;;;;;51.33;21.88;;;;;;;;;;5050746;28;20193;-67
2023/02/23 13:07:51;;;;;;;54.45;23.23;;;;;;;;;;5078208;28;20192;-68
2023/02/23 13:10:42;;;;;;;56.13;23.45;;;;;;;;;;5065398;28;20279;-68
2023/02/23 13:13:29;;;;;;;60.33;23.50;;;;;;;;;;5051404;28;20258;-69
2023/02/23 13:16:20;;;;;;;53.35;22.35;;;;;;;;;;5050369;28;20193;-68
2023/02/23 13:19:09;;;;;;;49.17;20.65;;;;;;;;;;5053219;28;20359;-68
2023/02/23 13:21:52;;;;;;;54.05;22.65;;;;;;;;;;5060972;28;20205;-68
2023/02/23 13:24:22;;;;;;;47.85;18.75;;;;;;;;;;5048629;28;20236;-69
2023/02/23 13:27:09;;;;;;;43.22;19.58;;;;;;;;;;5047705;28;20204;-68
2023/02/23 13:29:49;;;;;;;48.70;19.67;;;;;;;;;;5048776;28;20312;-68
2023/02/23 13:32:24;;;;;;;45.42;19.05;;;;;;;;;;5058591;28;20195;-68
2023/02/23 13:35:01;;;;;;;46.05;19.50;;;;;;;;;;5056902;28;20653;-68
2023/02/23 13:37:45;;;;;;;43.85;19.45;;;;;;;;;;5055257;28;20314;-68
2023/02/23 13:40:35;;;;;;;45.33;19.77;;;;;;;;;;5067568;28;20192;-68
2023/02/23 13:43:26;;;;;;;45.05;18.73;;;;;;;;;;5044577;28;20672;-68
2023/02/23 13:46:02;;;;;;;43.63;18.95;;;;;;;;;;5059289;28;20707;-69
2023/02/23 13:48:55;;;;;;;43.05;17.85;;;;;;;;;;5056384;28;20203;-68
2023/02/23 13:51:44;;;;;;;41.55;17.95;;;;;;;;;;5061697;28;20205;-68
2023/02/23 13:54:12;;;;;;;47.85;20.05;;;;;;;;;;5053160;28;20570;-68
2023/02/23 13:56:49;;;;;;;45.50;19.48;;;;;;;;;;5050557;28;20201;-69
2023/02/23 13:59:18;;;;;;;49.35;18.63;;;;;;;;;;5067248;28;20245;-69
2023/02/23 14:01:48;;;;;;;40.33;18.75;;;;;;;;;;5050050;28;20270;-68
2023/02/23 14:04:25;;;;;;;41.00;18.52;;;;;;;;;;5054936;28;20284;-68
2023/02/23 14:07:03;;;;;;;39.60;18.35;;;;;;;;;;5055458;28;20188;-69
2023/02/23 14:09:39;;;;;;;39.38;18.23;;;;;;;;;;5049389;28;20207;-68
2023/02/23 14:12:23;;;;;;;39.25;18.10;;;;;;;;;;4744770;28;10000737;-68
2023/02/23 14:14:49;;;;;;;41.15;17.77;;;;;;;;;;5055109;28;20440;-69
2023/02/23 14:17:14;;;;;;;38.53;17.73;;;;;;;;;;5062514;28;20188;-67
2023/02/23 14:19:59;;;;;;;39.65;18.15;;;;;;;;;;5058212;28;20253;-67
2023/02/23 14:22:26;;;;;;;40.63;18.58;;;;;;;;;;5055004;28;20785;-68
2023/02/23 14:25:43;;;;;;;40.90;17.80;;;;;;;;;;5066774;28;20256;-67
2023/02/23 14:28:29;;;;;;;41.42;17.73;;;;;;;;;;5053847;28;20196;-67
2023/02/23 14:31:13;;;;;;;42.35;18.17;;;;;;;;;;5060210;28;20507;-67
2023/02/23 14:33:41;;;;;;;41.58;17.85;;;;;;;;;;5052110;28;20224;-67
2023/02/23 14:36:25;;;;;;;43.70;18.65;;;;;;;;;;5051771;28;20195;-67
2023/02/23 14:38:57;;;;;;;45.83;18.77;;;;;;;;;;5057144;28;20200;-67
2023/02/23 14:41:50;;;;;;;44.70;17.65;;;;;;;;;;5054040;28;20259;-67
2023/02/23 14:44:19;;;;;;;47.42;17.85;;;;;;;;;;5055424;28;20272;-68
2023/02/23 14:46:53;;;;;;;45.63;17.73;;;;;;;;;;5047171;28;20225;-68
2023/02/23 14:49:20;;;;;;;49.13;19.45;;;;;;;;;;5047234;28;20203;-67
2023/02/23 14:51:50;;;;;;;45.92;18.63;;;;;;;;;;5047133;28;20227;-67
2023/02/23 14:54:28;;;;;;;53.45;19.27;;;;;;;;;;5057790;28;20382;-67
2023/02/23 14:56:57;;;;;;;53.85;19.70;;;;;;;;;;5054678;28;20189;-67
2023/02/23 14:59:26;;;;;;;51.60;19.88;;;;;;;;;;5057169;28;20662;-67
2023/02/23 15:01:53;;;;;;;56.85;20.63;;;;;;;;;;5057717;28;20217;-67
2023/02/23 15:04:28;;;;;;;55.55;20.20;;;;;;;;;;5053179;28;20201;-67
2023/02/23 15:06:58;;;;;;;58.75;20.55;;;;;;;;;;5053534;28;20235;-67
2023/02/23 15:09:38;;;;;;;56.95;20.60;;;;;;;;;;5056988;28;20681;-67
2023/02/23 15:12:27;;;;;;;52.83;20.95;;;;;;;;;;5060258;28;20185;-67
2023/02/23 15:14:56;;;;;;;59.80;20.98;;;;;;;;;;5064386;28;20231;-67
2023/02/23 15:17:24;;;;;;;54.20;20.08;;;;;;;;;;5057789;28;20271;-68
2023/02/23 15:19:56;;;;;;;52.33;20.08;;;;;;;;;;5058855;28;20697;-67
2023/02/23 15:22:30;;;;;;;63.33;20.55;;;;;;;;;;5059542;28;20185;-68
2023/02/23 15:25:00;;;;;;;58.75;21.17;;;;;;;;;;5058299;28;20188;-67
2023/02/23 15:27:42;;;;;;;55.10;19.80;;;;;;;;;;5057144;28;20188;-68
2023/02/23 15:30:20;;;;;;;56.17;19.67;;;;;;;;;;5059841;28;20225;-67
2023/02/23 15:32:46;;;;;;;57.05;20.25;;;;;;;;;;5059979;28;20631;-68
2023/02/23 15:35:12;;;;;;;56.40;20.83;;;;;;;;;;5060491;28;20500;-67
2023/02/23 15:37:47;;;;;;;55.50;20.33;;;;;;;;;;5056969;28;20711;-67
2023/02/23 15:40:16;;;;;;;60.15;21.27;;;;;;;;;;5053993;28;20216;-67
2023/02/23 15:42:53;;;;;;;56.40;19.90;;;;;;;;;;5058538;28;20234;-67
2023/02/23 15:45:29;;;;;;;56.70;19.50;;;;;;;;;;5057759;28;20231;-68
2023/02/23 15:47:58;;;;;;;58.63;21.08;;;;;;;;;;5060687;28;20193;-67
2023/02/23 15:50:29;;;;;;;61.33;20.55;;;;;;;;;;5055115;28;20182;-67
2023/02/23 15:52:59;;;;;;;53.65;19.45;;;;;;;;;;5057848;28;20200;-67
2023/02/23 15:55:30;;;;;;;62.67;21.23;;;;;;;;;;5053221;28;20247;-67
2023/02/23 15:57:58;;;;;;;55.08;21.23;;;;;;;;;;5056665;28;20241;-67
2023/02/23 16:00:39;;;;;;;57.35;19.65;;;;;;;;;;5058607;28;20201;-67